Terminal Aerodrome Forecast
Issued by NWS

Home | Current Version | Previous Version | Text Only | Print | Product List | Glossary On
Versions: 1 2 3 4 5 6 7 8 9 10 11 12 13 14 15 16 17 18 19 20 21 22 23 24 25
000
FTUS41 KBGM 082324
TAFRME
TAF
KRME 082324Z 0900/0924 27010G16KT P6SM -SN BKN035 OVC070
      TEMPO 0902/0906 1/2SM SN OVC015
     FM090600 27012KT 6SM -SHSN OVC025
     FM091100 29009KT P6SM OVC025
     FM091600 30011G20KT P6SM -SN OVC035
     FM092300 28007KT P6SM -SN OVC025=

USA.gov is the U.S. government's official web portal to all federal, state and local government web resources and services.